sensor_id;sensor_type;location;lat;lon;timestamp;P1;durP1;ratioP1;P2;durP2;ratioP2
13592;SDS011;6867;50.998;4.250;2022-09-09T00:00:59;10.82;;;2.80;;
13592;SDS011;6867;50.998;4.250;2022-09-09T00:03:37;6.32;;;2.60;;
13592;SDS011;6867;50.998;4.250;2022-09-09T00:06:13;8.45;;;2.47;;
13592;SDS011;6867;50.998;4.250;2022-09-09T00:08:49;4.35;;;2.05;;
13592;SDS011;6867;50.998;4.250;2022-09-09T00:11:27;4.17;;;1.93;;
13592;SDS011;6867;50.998;4.250;2022-09-09T00:14:02;8.52;;;2.20;;
13592;SDS011;6867;50.998;4.250;2022-09-09T00:16:35;7.38;;;2.03;;
13592;SDS011;6867;50.998;4.250;2022-09-09T00:19:07;5.17;;;2.27;;
13592;SDS011;6867;50.998;4.250;2022-09-09T00:21:43;5.82;;;2.20;;
13592;SDS011;6867;50.998;4.250;2022-09-09T00:24:19;4.85;;;2.03;;
13592;SDS011;6867;50.998;4.250;2022-09-09T00:26:53;4.00;;;2.00;;
13592;SDS011;6867;50.998;4.250;2022-09-09T00:29:28;9.93;;;2.33;;
13592;SDS011;6867;50.998;4.250;2022-09-09T00:32:04;4.10;;;2.13;;
13592;SDS011;6867;50.998;4.250;2022-09-09T00:34:37;4.80;;;2.30;;
13592;SDS011;6867;50.998;4.250;2022-09-09T00:37:09;5.27;;;2.40;;
13592;SDS011;6867;50.998;4.250;2022-09-09T00:39:36;5.73;;;2.70;;
13592;SDS011;6867;50.998;4.250;2022-09-09T00:42:11;5.35;;;2.97;;
13592;SDS011;6867;50.998;4.250;2022-09-09T00:44:46;8.32;;;2.70;;
13592;SDS011;6867;50.998;4.250;2022-09-09T00:47:28;8.57;;;3.15;;
13592;SDS011;6867;50.998;4.250;2022-09-09T00:50:13;9.02;;;2.85;;
13592;SDS011;6867;50.998;4.250;2022-09-09T00:52:51;7.25;;;3.55;;
13592;SDS011;6867;50.998;4.250;2022-09-09T00:55:31;9.00;;;3.28;;
13592;SDS011;6867;50.998;4.250;2022-09-09T00:58:06;7.65;;;3.72;;
13592;SDS011;6867;50.998;4.250;2022-09-09T01:00:35;8.43;;;3.60;;
13592;SDS011;6867;50.998;4.250;2022-09-09T01:03:19;8.23;;;3.38;;
13592;SDS011;6867;50.998;4.250;2022-09-09T01:05:51;9.70;;;3.73;;
13592;SDS011;6867;50.998;4.250;2022-09-09T01:08:34;10.07;;;4.35;;
13592;SDS011;6867;50.998;4.250;2022-09-09T01:11:10;13.85;;;3.70;;
13592;SDS011;6867;50.998;4.250;2022-09-09T01:13:47;9.32;;;4.15;;
13592;SDS011;6867;50.998;4.250;2022-09-09T01:16:20;10.95;;;3.95;;
13592;SDS011;6867;50.998;4.250;2022-09-09T01:18:48;7.93;;;4.20;;
13592;SDS011;6867;50.998;4.250;2022-09-09T01:21:19;9.10;;;4.27;;
13592;SDS011;6867;50.998;4.250;2022-09-09T01:24:01;15.37;;;3.90;;
13592;SDS011;6867;50.998;4.250;2022-09-09T01:26:46;10.20;;;3.80;;
13592;SDS011;6867;50.998;4.250;2022-09-09T01:29:16;10.60;;;3.90;;
13592;SDS011;6867;50.998;4.250;2022-09-09T01:31:51;9.60;;;3.50;;
13592;SDS011;6867;50.998;4.250;2022-09-09T01:34:20;10.25;;;3.97;;
13592;SDS011;6867;50.998;4.250;2022-09-09T01:36:49;7.73;;;3.57;;
13592;SDS011;6867;50.998;4.250;2022-09-09T01:39:21;6.60;;;3.70;;
13592;SDS011;6867;50.998;4.250;2022-09-09T01:41:49;9.97;;;4.27;;
13592;SDS011;6867;50.998;4.250;2022-09-09T01:44:16;6.67;;;3.70;;
13592;SDS011;6867;50.998;4.250;2022-09-09T01:46:43;7.78;;;3.17;;
13592;SDS011;6867;50.998;4.250;2022-09-09T01:49:10;5.95;;;3.08;;
13592;SDS011;6867;50.998;4.250;2022-09-09T01:51:37;6.82;;;2.58;;
13592;SDS011;6867;50.998;4.250;2022-09-09T01:54:07;7.95;;;3.05;;
13592;SDS011;6867;50.998;4.250;2022-09-09T01:56:35;4.80;;;2.57;;
13592;SDS011;6867;50.998;4.250;2022-09-09T01:59:14;4.65;;;2.40;;
13592;SDS011;6867;50.998;4.250;2022-09-09T02:01:53;6.05;;;2.85;;
13592;SDS011;6867;50.998;4.250;2022-09-09T02:04:34;6.95;;;2.45;;
13592;SDS011;6867;50.998;4.250;2022-09-09T02:07:09;5.17;;;2.30;;
13592;SDS011;6867;50.998;4.250;2022-09-09T02:09:47;3.38;;;2.30;;
13592;SDS011;6867;50.998;4.250;2022-09-09T02:12:23;8.13;;;2.67;;
13592;SDS011;6867;50.998;4.250;2022-09-09T02:14:55;14.63;;;2.85;;
13592;SDS011;6867;50.998;4.250;2022-09-09T02:17:27;10.13;;;2.78;;
13592;SDS011;6867;50.998;4.250;2022-09-09T02:19:58;9.10;;;2.75;;
13592;SDS011;6867;50.998;4.250;2022-09-09T02:22:31;11.18;;;2.67;;
13592;SDS011;6867;50.998;4.250;2022-09-09T02:25:00;8.57;;;2.75;;
13592;SDS011;6867;50.998;4.250;2022-09-09T02:27:30;12.15;;;2.85;;
13592;SDS011;6867;50.998;4.250;2022-09-09T02:29:59;10.35;;;3.05;;
13592;SDS011;6867;50.998;4.250;2022-09-09T02:32:28;6.72;;;2.70;;
13592;SDS011;6867;50.998;4.250;2022-09-09T02:34:57;4.65;;;2.45;;
13592;SDS011;6867;50.998;4.250;2022-09-09T02:37:30;11.93;;;2.72;;
13592;SDS011;6867;50.998;4.250;2022-09-09T02:40:02;8.52;;;2.58;;
13592;SDS011;6867;50.998;4.250;2022-09-09T02:42:28;6.60;;;2.78;;
13592;SDS011;6867;50.998;4.250;2022-09-09T02:44:55;8.03;;;2.83;;
13592;SDS011;6867;50.998;4.250;2022-09-09T02:47:28;4.43;;;2.73;;
13592;SDS011;6867;50.998;4.250;2022-09-09T02:50:06;6.65;;;2.45;;
13592;SDS011;6867;50.998;4.250;2022-09-09T02:52:42;5.38;;;2.33;;
13592;SDS011;6867;50.998;4.250;2022-09-09T02:55:17;9.07;;;3.33;;
13592;SDS011;6867;50.998;4.250;2022-09-09T02:57:49;8.52;;;2.95;;
13592;SDS011;6867;50.998;4.250;2022-09-09T03:00:22;5.55;;;2.60;;
13592;SDS011;6867;50.998;4.250;2022-09-09T03:02:51;7.90;;;3.00;;
13592;SDS011;6867;50.998;4.250;2022-09-09T03:05:19;8.23;;;2.88;;
13592;SDS011;6867;50.998;4.250;2022-09-09T03:07:48;13.30;;;3.55;;
13592;SDS011;6867;50.998;4.250;2022-09-09T03:10:15;12.02;;;3.50;;
13592;SDS011;6867;50.998;4.250;2022-09-09T03:12:43;6.80;;;2.53;;
13592;SDS011;6867;50.998;4.250;2022-09-09T03:15:09;7.63;;;3.25;;
13592;SDS011;6867;50.998;4.250;2022-09-09T03:17:36;9.50;;;3.00;;
13592;SDS011;6867;50.998;4.250;2022-09-09T03:20:05;7.63;;;3.10;;
13592;SDS011;6867;50.998;4.250;2022-09-09T03:22:32;15.73;;;3.33;;
13592;SDS011;6867;50.998;4.250;2022-09-09T03:24:59;8.60;;;2.92;;
13592;SDS011;6867;50.998;4.250;2022-09-09T03:27:25;6.85;;;2.88;;
13592;SDS011;6867;50.998;4.250;2022-09-09T03:29:52;8.63;;;2.80;;
13592;SDS011;6867;50.998;4.250;2022-09-09T03:32:19;11.85;;;3.40;;
13592;SDS011;6867;50.998;4.250;2022-09-09T03:34:47;9.98;;;3.38;;
13592;SDS011;6867;50.998;4.250;2022-09-09T03:37:16;8.32;;;2.70;;
13592;SDS011;6867;50.998;4.250;2022-09-09T03:39:43;8.57;;;2.70;;
13592;SDS011;6867;50.998;4.250;2022-09-09T03:42:11;6.53;;;2.47;;
13592;SDS011;6867;50.998;4.250;2022-09-09T03:44:43;10.73;;;3.10;;
13592;SDS011;6867;50.998;4.250;2022-09-09T03:47:14;11.48;;;2.88;;
13592;SDS011;6867;50.998;4.250;2022-09-09T03:49:40;13.80;;;3.17;;
13592;SDS011;6867;50.998;4.250;2022-09-09T03:52:08;5.43;;;2.42;;
13592;SDS011;6867;50.998;4.250;2022-09-09T03:54:36;10.13;;;3.22;;
13592;SDS011;6867;50.998;4.250;2022-09-09T03:57:03;7.90;;;2.83;;
13592;SDS011;6867;50.998;4.250;2022-09-09T03:59:30;15.27;;;3.28;;
13592;SDS011;6867;50.998;4.250;2022-09-09T04:01:57;11.50;;;3.30;;
13592;SDS011;6867;50.998;4.250;2022-09-09T04:04:24;11.65;;;2.90;;
13592;SDS011;6867;50.998;4.250;2022-09-09T04:06:51;8.45;;;2.95;;
13592;SDS011;6867;50.998;4.250;2022-09-09T04:09:18;5.88;;;2.95;;
13592;SDS011;6867;50.998;4.250;2022-09-09T04:11:46;10.43;;;3.50;;
13592;SDS011;6867;50.998;4.250;2022-09-09T04:14:12;8.48;;;2.78;;
13592;SDS011;6867;50.998;4.250;2022-09-09T04:16:39;6.20;;;2.55;;
13592;SDS011;6867;50.998;4.250;2022-09-09T04:19:09;14.80;;;2.65;;
13592;SDS011;6867;50.998;4.250;2022-09-09T04:21:37;9.27;;;3.13;;
13592;SDS011;6867;50.998;4.250;2022-09-09T04:24:06;9.27;;;2.63;;
13592;SDS011;6867;50.998;4.250;2022-09-09T04:26:33;11.30;;;2.80;;
13592;SDS011;6867;50.998;4.250;2022-09-09T04:29:03;10.45;;;2.60;;
13592;SDS011;6867;50.998;4.250;2022-09-09T04:31:30;12.95;;;2.88;;
13592;SDS011;6867;50.998;4.250;2022-09-09T04:33:57;9.68;;;3.13;;
13592;SDS011;6867;50.998;4.250;2022-09-09T04:36:27;11.00;;;3.15;;
13592;SDS011;6867;50.998;4.250;2022-09-09T04:38:54;9.70;;;3.45;;
13592;SDS011;6867;50.998;4.250;2022-09-09T04:41:20;10.10;;;3.08;;
13592;SDS011;6867;50.998;4.250;2022-09-09T04:43:47;7.53;;;3.15;;
13592;SDS011;6867;50.998;4.250;2022-09-09T04:46:15;8.35;;;3.22;;
13592;SDS011;6867;50.998;4.250;2022-09-09T04:48:42;14.30;;;3.17;;
13592;SDS011;6867;50.998;4.250;2022-09-09T04:51:10;8.88;;;3.03;;
13592;SDS011;6867;50.998;4.250;2022-09-09T04:53:38;12.07;;;3.55;;
13592;SDS011;6867;50.998;4.250;2022-09-09T04:56:06;11.55;;;3.22;;
13592;SDS011;6867;50.998;4.250;2022-09-09T04:58:35;10.20;;;3.33;;
13592;SDS011;6867;50.998;4.250;2022-09-09T05:01:03;10.63;;;3.80;;
13592;SDS011;6867;50.998;4.250;2022-09-09T05:03:32;14.52;;;3.70;;
13592;SDS011;6867;50.998;4.250;2022-09-09T05:06:02;11.15;;;3.85;;
13592;SDS011;6867;50.998;4.250;2022-09-09T05:08:30;10.00;;;3.35;;
13592;SDS011;6867;50.998;4.250;2022-09-09T05:10:57;10.57;;;3.45;;
13592;SDS011;6867;50.998;4.250;2022-09-09T05:13:24;14.48;;;3.53;;
13592;SDS011;6867;50.998;4.250;2022-09-09T05:15:51;12.60;;;3.40;;
13592;SDS011;6867;50.998;4.250;2022-09-09T05:18:18;9.15;;;3.80;;
13592;SDS011;6867;50.998;4.250;2022-09-09T05:20:48;11.35;;;3.47;;
13592;SDS011;6867;50.998;4.250;2022-09-09T05:23:16;17.00;;;3.38;;
13592;SDS011;6867;50.998;4.250;2022-09-09T05:25:43;18.58;;;4.30;;
13592;SDS011;6867;50.998;4.250;2022-09-09T05:28:21;6.57;;;2.90;;
13592;SDS011;6867;50.998;4.250;2022-09-09T05:30:54;9.60;;;4.05;;
13592;SDS011;6867;50.998;4.250;2022-09-09T05:33:22;9.27;;;4.18;;
13592;SDS011;6867;50.998;4.250;2022-09-09T05:35:56;12.90;;;3.33;;
13592;SDS011;6867;50.998;4.250;2022-09-09T05:38:23;5.38;;;2.78;;
13592;SDS011;6867;50.998;4.250;2022-09-09T05:40:50;8.48;;;3.05;;
13592;SDS011;6867;50.998;4.250;2022-09-09T05:43:17;6.57;;;2.85;;
13592;SDS011;6867;50.998;4.250;2022-09-09T05:45:45;9.85;;;2.95;;
13592;SDS011;6867;50.998;4.250;2022-09-09T05:48:12;14.40;;;3.22;;
13592;SDS011;6867;50.998;4.250;2022-09-09T05:50:40;12.82;;;3.47;;
13592;SDS011;6867;50.998;4.250;2022-09-09T05:53:09;10.68;;;3.17;;
13592;SDS011;6867;50.998;4.250;2022-09-09T05:55:36;11.95;;;3.17;;
13592;SDS011;6867;50.998;4.250;2022-09-09T05:58:03;16.15;;;3.58;;
13592;SDS011;6867;50.998;4.250;2022-09-09T06:00:29;11.07;;;2.95;;
13592;SDS011;6867;50.998;4.250;2022-09-09T06:02:57;9.70;;;3.00;;
13592;SDS011;6867;50.998;4.250;2022-09-09T06:05:23;18.40;;;3.78;;
13592;SDS011;6867;50.998;4.250;2022-09-09T06:07:52;7.05;;;2.97;;
13592;SDS011;6867;50.998;4.250;2022-09-09T06:10:20;11.27;;;2.95;;
13592;SDS011;6867;50.998;4.250;2022-09-09T06:12:47;11.88;;;3.33;;
13592;SDS011;6867;50.998;4.250;2022-09-09T06:15:14;12.68;;;3.05;;
13592;SDS011;6867;50.998;4.250;2022-09-09T06:17:41;18.30;;;3.20;;
13592;SDS011;6867;50.998;4.250;2022-09-09T06:20:08;9.18;;;3.03;;
13592;SDS011;6867;50.998;4.250;2022-09-09T06:22:35;8.32;;;2.72;;
13592;SDS011;6867;50.998;4.250;2022-09-09T06:25:02;10.98;;;3.22;;
13592;SDS011;6867;50.998;4.250;2022-09-09T06:27:30;19.33;;;3.22;;
13592;SDS011;6867;50.998;4.250;2022-09-09T06:29:57;12.90;;;2.97;;
13592;SDS011;6867;50.998;4.250;2022-09-09T06:32:24;7.10;;;3.58;;
13592;SDS011;6867;50.998;4.250;2022-09-09T06:34:52;10.25;;;3.67;;
13592;SDS011;6867;50.998;4.250;2022-09-09T06:37:19;10.02;;;2.72;;
13592;SDS011;6867;50.998;4.250;2022-09-09T06:39:45;8.98;;;2.20;;
13592;SDS011;6867;50.998;4.250;2022-09-09T06:42:13;9.65;;;2.83;;
13592;SDS011;6867;50.998;4.250;2022-09-09T06:44:42;12.20;;;3.10;;
13592;SDS011;6867;50.998;4.250;2022-09-09T06:47:08;8.07;;;2.42;;
13592;SDS011;6867;50.998;4.250;2022-09-09T06:49:36;7.82;;;2.90;;
13592;SDS011;6867;50.998;4.250;2022-09-09T06:52:02;4.55;;;2.15;;
13592;SDS011;6867;50.998;4.250;2022-09-09T06:54:29;6.07;;;2.30;;
13592;SDS011;6867;50.998;4.250;2022-09-09T06:56:56;8.93;;;2.83;;
13592;SDS011;6867;50.998;4.250;2022-09-09T06:59:23;5.75;;;2.25;;
13592;SDS011;6867;50.998;4.250;2022-09-09T07:01:52;7.35;;;2.15;;
13592;SDS011;6867;50.998;4.250;2022-09-09T07:04:19;9.70;;;2.10;;
13592;SDS011;6867;50.998;4.250;2022-09-09T07:06:46;5.00;;;1.92;;
13592;SDS011;6867;50.998;4.250;2022-09-09T07:09:13;7.95;;;1.90;;
13592;SDS011;6867;50.998;4.250;2022-09-09T07:11:42;7.57;;;2.42;;
13592;SDS011;6867;50.998;4.250;2022-09-09T07:14:10;5.25;;;1.92;;
13592;SDS011;6867;50.998;4.250;2022-09-09T07:16:39;6.20;;;1.90;;
13592;SDS011;6867;50.998;4.250;2022-09-09T07:19:08;4.70;;;1.88;;
13592;SDS011;6867;50.998;4.250;2022-09-09T07:21:35;6.28;;;1.50;;
13592;SDS011;6867;50.998;4.250;2022-09-09T07:24:02;4.10;;;1.63;;
13592;SDS011;6867;50.998;4.250;2022-09-09T07:26:32;7.68;;;1.95;;
13592;SDS011;6867;50.998;4.250;2022-09-09T07:29:00;10.70;;;1.90;;
13592;SDS011;6867;50.998;4.250;2022-09-09T07:31:27;1.75;;;1.30;;
13592;SDS011;6867;50.998;4.250;2022-09-09T07:33:55;8.55;;;2.03;;
13592;SDS011;6867;50.998;4.250;2022-09-09T07:36:24;3.83;;;1.60;;
13592;SDS011;6867;50.998;4.250;2022-09-09T07:38:53;7.95;;;2.00;;
13592;SDS011;6867;50.998;4.250;2022-09-09T07:41:22;6.38;;;2.17;;
13592;SDS011;6867;50.998;4.250;2022-09-09T07:43:50;4.93;;;1.55;;
13592;SDS011;6867;50.998;4.250;2022-09-09T07:46:19;7.32;;;2.20;;
13592;SDS011;6867;50.998;4.250;2022-09-09T07:48:48;6.60;;;2.38;;
13592;SDS011;6867;50.998;4.250;2022-09-09T07:51:16;5.72;;;2.00;;
13592;SDS011;6867;50.998;4.250;2022-09-09T07:53:46;7.40;;;2.03;;
13592;SDS011;6867;50.998;4.250;2022-09-09T07:56:13;6.63;;;1.73;;
13592;SDS011;6867;50.998;4.250;2022-09-09T07:58:41;5.63;;;1.60;;
13592;SDS011;6867;50.998;4.250;2022-09-09T08:01:11;5.03;;;1.60;;
13592;SDS011;6867;50.998;4.250;2022-09-09T08:03:39;5.20;;;1.80;;
13592;SDS011;6867;50.998;4.250;2022-09-09T08:06:07;5.28;;;1.90;;
13592;SDS011;6867;50.998;4.250;2022-09-09T08:08:35;11.05;;;1.88;;
13592;SDS011;6867;50.998;4.250;2022-09-09T08:11:05;4.60;;;1.60;;
13592;SDS011;6867;50.998;4.250;2022-09-09T08:13:34;6.95;;;1.63;;
13592;SDS011;6867;50.998;4.250;2022-09-09T08:16:05;2.95;;;1.48;;
13592;SDS011;6867;50.998;4.250;2022-09-09T08:18:33;3.33;;;1.23;;
13592;SDS011;6867;50.998;4.250;2022-09-09T08:21:07;3.72;;;1.67;;
13592;SDS011;6867;50.998;4.250;2022-09-09T08:23:36;4.25;;;1.75;;
13592;SDS011;6867;50.998;4.250;2022-09-09T08:26:06;6.57;;;1.88;;
13592;SDS011;6867;50.998;4.250;2022-09-09T08:28:36;6.70;;;1.85;;
13592;SDS011;6867;50.998;4.250;2022-09-09T08:31:10;5.45;;;1.50;;
13592;SDS011;6867;50.998;4.250;2022-09-09T08:33:38;7.28;;;1.77;;
13592;SDS011;6867;50.998;4.250;2022-09-09T08:36:06;5.70;;;1.50;;
13592;SDS011;6867;50.998;4.250;2022-09-09T08:38:35;3.67;;;1.42;;
13592;SDS011;6867;50.998;4.250;2022-09-09T08:41:05;7.00;;;1.70;;
13592;SDS011;6867;50.998;4.250;2022-09-09T08:44:05;4.50;;;1.65;;
13592;SDS011;6867;50.998;4.250;2022-09-09T08:46:35;5.32;;;1.90;;
13592;SDS011;6867;50.998;4.250;2022-09-09T08:49:14;3.90;;;1.95;;
13592;SDS011;6867;50.998;4.250;2022-09-09T08:51:53;4.53;;;1.42;;
13592;SDS011;6867;50.998;4.250;2022-09-09T08:54:22;8.82;;;1.70;;
13592;SDS011;6867;50.998;4.250;2022-09-09T08:56:49;5.28;;;1.58;;
13592;SDS011;6867;50.998;4.250;2022-09-09T08:59:18;4.43;;;1.58;;
13592;SDS011;6867;50.998;4.250;2022-09-09T09:01:50;8.27;;;1.95;;
13592;SDS011;6867;50.998;4.250;2022-09-09T09:04:30;3.72;;;1.52;;
13592;SDS011;6867;50.998;4.250;2022-09-09T09:07:14;4.07;;;1.50;;
13592;SDS011;6867;50.998;4.250;2022-09-09T09:09:53;5.53;;;1.52;;
13592;SDS011;6867;50.998;4.250;2022-09-09T09:12:29;5.72;;;1.77;;
13592;SDS011;6867;50.998;4.250;2022-09-09T09:15:05;7.47;;;1.80;;
13592;SDS011;6867;50.998;4.250;2022-09-09T09:17:41;10.25;;;2.22;;
13592;SDS011;6867;50.998;4.250;2022-09-09T09:20:11;8.13;;;2.00;;
13592;SDS011;6867;50.998;4.250;2022-09-09T09:22:42;8.55;;;2.03;;
13592;SDS011;6867;50.998;4.250;2022-09-09T09:25:15;4.25;;;1.60;;
13592;SDS011;6867;50.998;4.250;2022-09-09T09:27:46;3.55;;;1.67;;
13592;SDS011;6867;50.998;4.250;2022-09-09T09:30:22;6.47;;;1.40;;
13592;SDS011;6867;50.998;4.250;2022-09-09T09:32:52;4.72;;;1.90;;
13592;SDS011;6867;50.998;4.250;2022-09-09T09:35:21;5.30;;;1.63;;
13592;SDS011;6867;50.998;4.250;2022-09-09T09:37:49;3.92;;;1.80;;
13592;SDS011;6867;50.998;4.250;2022-09-09T09:40:16;3.67;;;1.33;;
13592;SDS011;6867;50.998;4.250;2022-09-09T09:42:48;3.65;;;1.73;;
13592;SDS011;6867;50.998;4.250;2022-09-09T09:45:20;5.70;;;1.67;;
13592;SDS011;6867;50.998;4.250;2022-09-09T09:47:58;4.07;;;1.40;;
13592;SDS011;6867;50.998;4.250;2022-09-09T09:50:27;7.35;;;1.60;;
13592;SDS011;6867;50.998;4.250;2022-09-09T09:52:54;8.70;;;1.70;;
13592;SDS011;6867;50.998;4.250;2022-09-09T09:55:22;2.10;;;1.17;;
13592;SDS011;6867;50.998;4.250;2022-09-09T09:57:50;3.70;;;1.50;;
13592;SDS011;6867;50.998;4.250;2022-09-09T10:00:19;7.90;;;1.95;;
13592;SDS011;6867;50.998;4.250;2022-09-09T10:02:48;6.35;;;1.70;;
13592;SDS011;6867;50.998;4.250;2022-09-09T10:05:18;4.93;;;1.52;;
13592;SDS011;6867;50.998;4.250;2022-09-09T10:07:46;4.85;;;1.40;;
13592;SDS011;6867;50.998;4.250;2022-09-09T10:10:29;5.20;;;1.55;;
13592;SDS011;6867;50.998;4.250;2022-09-09T10:13:08;3.28;;;1.50;;
13592;SDS011;6867;50.998;4.250;2022-09-09T10:15:44;3.15;;;1.40;;
13592;SDS011;6867;50.998;4.250;2022-09-09T10:18:24;4.63;;;1.45;;
13592;SDS011;6867;50.998;4.250;2022-09-09T10:21:12;2.95;;;1.30;;
13592;SDS011;6867;50.998;4.250;2022-09-09T10:24:02;3.55;;;1.30;;
13592;SDS011;6867;50.998;4.250;2022-09-09T10:26:40;5.30;;;1.25;;
13592;SDS011;6867;50.998;4.250;2022-09-09T10:29:17;4.28;;;1.38;;
13592;SDS011;6867;50.998;4.250;2022-09-09T10:32:06;5.03;;;1.58;;
13592;SDS011;6867;50.998;4.250;2022-09-09T10:34:56;3.00;;;1.20;;
13592;SDS011;6867;50.998;4.250;2022-09-09T10:37:34;2.97;;;1.30;;
13592;SDS011;6867;50.998;4.250;2022-09-09T10:40:05;5.18;;;1.27;;
13592;SDS011;6867;50.998;4.250;2022-09-09T10:42:47;3.83;;;1.38;;
13592;SDS011;6867;50.998;4.250;2022-09-09T10:45:15;5.13;;;1.52;;
13592;SDS011;6867;50.998;4.250;2022-09-09T10:50:51;6.32;;;1.33;;
13592;SDS011;6867;50.998;4.250;2022-09-09T10:53:24;4.05;;;1.30;;
13592;SDS011;6867;50.998;4.250;2022-09-09T10:56:01;4.25;;;1.58;;
13592;SDS011;6867;50.998;4.250;2022-09-09T10:58:35;4.95;;;1.30;;
13592;SDS011;6867;50.998;4.250;2022-09-09T11:01:09;4.97;;;1.67;;
13592;SDS011;6867;50.998;4.250;2022-09-09T11:03:42;4.15;;;1.40;;
13592;SDS011;6867;50.998;4.250;2022-09-09T11:06:15;3.63;;;1.40;;
13592;SDS011;6867;50.998;4.250;2022-09-09T11:08:45;6.85;;;1.20;;
13592;SDS011;6867;50.998;4.250;2022-09-09T11:11:16;1.88;;;1.35;;
13592;SDS011;6867;50.998;4.250;2022-09-09T11:13:45;2.78;;;1.20;;
13592;SDS011;6867;50.998;4.250;2022-09-09T11:16:19;4.43;;;1.33;;
13592;SDS011;6867;50.998;4.250;2022-09-09T11:18:53;4.25;;;1.20;;
13592;SDS011;6867;50.998;4.250;2022-09-09T11:21:26;2.55;;;1.60;;
13592;SDS011;6867;50.998;4.250;2022-09-09T11:23:57;4.63;;;1.58;;
13592;SDS011;6867;50.998;4.250;2022-09-09T11:26:29;3.72;;;1.10;;
13592;SDS011;6867;50.998;4.250;2022-09-09T11:29:04;2.83;;;1.08;;
13592;SDS011;6867;50.998;4.250;2022-09-09T11:31:54;4.97;;;2.05;;
13592;SDS011;6867;50.998;4.250;2022-09-09T11:34:35;2.90;;;1.17;;
13592;SDS011;6867;50.998;4.250;2022-09-09T11:37:20;1.67;;;0.82;;
13592;SDS011;6867;50.998;4.250;2022-09-09T11:42:46;1.98;;;1.20;;
13592;SDS011;6867;50.998;4.250;2022-09-09T11:45:22;7.28;;;1.40;;
13592;SDS011;6867;50.998;4.250;2022-09-09T11:47:54;2.08;;;1.02;;
13592;SDS011;6867;50.998;4.250;2022-09-09T11:50:29;4.20;;;0.90;;
13592;SDS011;6867;50.998;4.250;2022-09-09T11:53:14;5.18;;;1.10;;
13592;SDS011;6867;50.998;4.250;2022-09-09T11:55:47;4.63;;;1.20;;
13592;SDS011;6867;50.998;4.250;2022-09-09T11:58:26;2.80;;;1.00;;
13592;SDS011;6867;50.998;4.250;2022-09-09T12:00:57;3.53;;;1.10;;
13592;SDS011;6867;50.998;4.250;2022-09-09T12:03:34;2.92;;;1.33;;
13592;SDS011;6867;50.998;4.250;2022-09-09T12:06:11;4.15;;;1.33;;
13592;SDS011;6867;50.998;4.250;2022-09-09T12:08:43;3.33;;;1.27;;
13592;SDS011;6867;50.998;4.250;2022-09-09T12:11:22;1.60;;;1.10;;
13592;SDS011;6867;50.998;4.250;2022-09-09T12:13:52;3.13;;;1.33;;
13592;SDS011;6867;50.998;4.250;2022-09-09T12:16:30;3.83;;;1.20;;
13592;SDS011;6867;50.998;4.250;2022-09-09T12:19:03;1.98;;;0.80;;
13592;SDS011;6867;50.998;4.250;2022-09-09T12:21:33;1.45;;;0.90;;
13592;SDS011;6867;50.998;4.250;2022-09-09T12:24:07;2.33;;;1.05;;
13592;SDS011;6867;50.998;4.250;2022-09-09T12:26:37;3.25;;;1.38;;
13592;SDS011;6867;50.998;4.250;2022-09-09T12:29:12;2.17;;;1.20;;
13592;SDS011;6867;50.998;4.250;2022-09-09T12:31:46;3.97;;;1.00;;
13592;SDS011;6867;50.998;4.250;2022-09-09T12:34:18;3.47;;;1.00;;
13592;SDS011;6867;50.998;4.250;2022-09-09T12:36:55;2.33;;;1.02;;
13592;SDS011;6867;50.998;4.250;2022-09-09T12:39:28;2.17;;;1.00;;
13592;SDS011;6867;50.998;4.250;2022-09-09T12:42:00;3.35;;;1.38;;
13592;SDS011;6867;50.998;4.250;2022-09-09T12:44:29;3.03;;;1.30;;
13592;SDS011;6867;50.998;4.250;2022-09-09T12:46:58;6.93;;;1.35;;
13592;SDS011;6867;50.998;4.250;2022-09-09T12:49:28;2.97;;;1.05;;
13592;SDS011;6867;50.998;4.250;2022-09-09T12:52:00;2.72;;;1.40;;
13592;SDS011;6867;50.998;4.250;2022-09-09T12:54:32;2.97;;;1.15;;
13592;SDS011;6867;50.998;4.250;2022-09-09T12:57:01;2.08;;;1.20;;
13592;SDS011;6867;50.998;4.250;2022-09-09T12:59:34;2.80;;;1.20;;
13592;SDS011;6867;50.998;4.250;2022-09-09T13:02:11;2.22;;;1.20;;
13592;SDS011;6867;50.998;4.250;2022-09-09T13:04:43;3.90;;;1.10;;
13592;SDS011;6867;50.998;4.250;2022-09-09T13:07:12;2.13;;;1.10;;
13592;SDS011;6867;50.998;4.250;2022-09-09T13:09:43;5.65;;;1.45;;
13592;SDS011;6867;50.998;4.250;2022-09-09T13:12:12;3.20;;;1.40;;
13592;SDS011;6867;50.998;4.250;2022-09-09T13:14:42;2.33;;;1.38;;
13592;SDS011;6867;50.998;4.250;2022-09-09T13:17:15;3.28;;;1.30;;
13592;SDS011;6867;50.998;4.250;2022-09-09T13:19:45;3.03;;;1.30;;
13592;SDS011;6867;50.998;4.250;2022-09-09T13:22:12;1.60;;;1.30;;
13592;SDS011;6867;50.998;4.250;2022-09-09T13:24:40;4.53;;;1.75;;
13592;SDS011;6867;50.998;4.250;2022-09-09T13:27:21;6.00;;;1.48;;
13592;SDS011;6867;50.998;4.250;2022-09-09T13:29:53;2.72;;;1.25;;
13592;SDS011;6867;50.998;4.250;2022-09-09T13:32:22;2.47;;;1.30;;
13592;SDS011;6867;50.998;4.250;2022-09-09T13:34:50;2.35;;;0.98;;
13592;SDS011;6867;50.998;4.250;2022-09-09T13:37:19;1.52;;;1.20;;
13592;SDS011;6867;50.998;4.250;2022-09-09T13:39:52;5.05;;;1.17;;
13592;SDS011;6867;50.998;4.250;2022-09-09T13:42:24;3.40;;;1.13;;
13592;SDS011;6867;50.998;4.250;2022-09-09T13:44:52;3.47;;;1.10;;
13592;SDS011;6867;50.998;4.250;2022-09-09T13:47:21;2.95;;;1.48;;
13592;SDS011;6867;50.998;4.250;2022-09-09T13:49:52;5.72;;;1.23;;
13592;SDS011;6867;50.998;4.250;2022-09-09T13:52:19;2.85;;;1.00;;
13592;SDS011;6867;50.998;4.250;2022-09-09T13:54:47;2.55;;;1.25;;
13592;SDS011;6867;50.998;4.250;2022-09-09T13:57:18;2.13;;;1.00;;
13592;SDS011;6867;50.998;4.250;2022-09-09T13:59:46;1.92;;;0.95;;
13592;SDS011;6867;50.998;4.250;2022-09-09T14:02:13;2.30;;;1.05;;
13592;SDS011;6867;50.998;4.250;2022-09-09T14:04:41;3.60;;;1.00;;
13592;SDS011;6867;50.998;4.250;2022-09-09T14:07:09;1.40;;;0.82;;
13592;SDS011;6867;50.998;4.250;2022-09-09T14:09:38;1.65;;;0.85;;
13592;SDS011;6867;50.998;4.250;2022-09-09T14:12:05;5.20;;;1.05;;
13592;SDS011;6867;50.998;4.250;2022-09-09T14:14:36;3.80;;;1.00;;
13592;SDS011;6867;50.998;4.250;2022-09-09T14:17:02;3.22;;;1.35;;
13592;SDS011;6867;50.998;4.250;2022-09-09T14:19:29;2.40;;;0.90;;
13592;SDS011;6867;50.998;4.250;2022-09-09T14:21:57;2.95;;;1.20;;
13592;SDS011;6867;50.998;4.250;2022-09-09T14:24:24;3.47;;;1.08;;
13592;SDS011;6867;50.998;4.250;2022-09-09T14:26:51;2.15;;;1.10;;
13592;SDS011;6867;50.998;4.250;2022-09-09T14:29:18;1.95;;;0.80;;
13592;SDS011;6867;50.998;4.250;2022-09-09T14:31:46;2.38;;;0.95;;
13592;SDS011;6867;50.998;4.250;2022-09-09T14:34:13;2.15;;;0.90;;
13592;SDS011;6867;50.998;4.250;2022-09-09T14:36:40;1.02;;;0.80;;
13592;SDS011;6867;50.998;4.250;2022-09-09T14:39:07;2.78;;;1.17;;
13592;SDS011;6867;50.998;4.250;2022-09-09T14:41:37;3.67;;;1.17;;
13592;SDS011;6867;50.998;4.250;2022-09-09T14:44:04;2.63;;;1.13;;
13592;SDS011;6867;50.998;4.250;2022-09-09T14:46:30;3.00;;;1.02;;
13592;SDS011;6867;50.998;4.250;2022-09-09T14:48:59;2.70;;;1.55;;
13592;SDS011;6867;50.998;4.250;2022-09-09T14:51:26;2.22;;;1.20;;
13592;SDS011;6867;50.998;4.250;2022-09-09T14:53:53;2.33;;;1.42;;
13592;SDS011;6867;50.998;4.250;2022-09-09T14:56:22;3.97;;;1.30;;
13592;SDS011;6867;50.998;4.250;2022-09-09T14:58:52;2.92;;;1.10;;
13592;SDS011;6867;50.998;4.250;2022-09-09T15:01:20;2.30;;;1.25;;
13592;SDS011;6867;50.998;4.250;2022-09-09T15:03:51;4.30;;;1.25;;
13592;SDS011;6867;50.998;4.250;2022-09-09T15:06:20;2.35;;;1.02;;
13592;SDS011;6867;50.998;4.250;2022-09-09T15:08:49;3.03;;;1.00;;
13592;SDS011;6867;50.998;4.250;2022-09-09T15:11:17;2.08;;;1.00;;
13592;SDS011;6867;50.998;4.250;2022-09-09T15:13:45;3.30;;;1.17;;
13592;SDS011;6867;50.998;4.250;2022-09-09T15:16:13;2.95;;;1.30;;
13592;SDS011;6867;50.998;4.250;2022-09-09T15:18:41;2.45;;;0.90;;
13592;SDS011;6867;50.998;4.250;2022-09-09T15:21:10;1.55;;;0.75;;
13592;SDS011;6867;50.998;4.250;2022-09-09T15:23:38;2.15;;;1.30;;
13592;SDS011;6867;50.998;4.250;2022-09-09T15:26:06;3.78;;;1.55;;